Terminal Aerodrome Forecast
Issued by NWS Dallas/Fort Worth, TX

Home | Current Version | Previous Version | Text Only | Print | Product List | Glossary On
Versions: 1 2 3 4 5 6 7 8 9 10 11 12 13 14 15 16 17 18 19 20 21 22 23 24
734
FTUS44 KFWD 281512 AAA
TAFACT
TAF AMD
KACT 281512Z 2815/2912 18016KT P6SM SCT035 BKN250
     FM290000 16016KT P6SM BKN040 BKN180
     FM290600 16018KT P6SM BKN015=

USA.gov is the U.S. government's official web portal to all federal, state and local government web resources and services.